Time;durP1;ratioP1;P1;durP2;ratioP2;P2;SDS_P1;SDS_P2;PMS_P1;PMS_P2;Temp;Humidity;BMP_temperature;BMP_pressure;BME280_temperature;BME280_humidity;BME280_pressure;Samples;Min_cycle;Max_cycle;Signal;HPM_P1;HPM_P2
2021/10/12 00:01:30;;;;;;;13.77;12.30;;;;;;;11.58;80.63;101426.59;6119429;23;20151;-63
2021/10/12 00:03:55;;;;;;;13.47;12.17;;;;;;;11.65;80.57;101426.53;6118379;23;20244;-63
2021/10/12 00:06:21;;;;;;;13.83;12.30;;;;;;;11.68;80.23;101420.13;6119704;23;20564;-63
2021/10/12 00:08:46;;;;;;;16.23;13.37;;;;;;;11.53;80.21;101420.75;6120120;23;20601;-62
2021/10/12 00:11:12;;;;;;;14.50;12.33;;;;;;;11.50;80.82;101427.91;6119293;23;20162;-62
2021/10/12 00:13:37;;;;;;;13.77;12.23;;;;;;;11.46;80.88;101415.28;6119078;23;20162;-63
2021/10/12 00:16:03;;;;;;;14.97;13.47;;;;;;;11.16;80.70;101379.25;6119476;23;20158;-63
2021/10/12 00:18:29;;;;;;;14.77;13.03;;;;;;;11.30;81.19;101407.59;6118831;23;20178;-63
2021/10/12 00:20:55;;;;;;;15.30;13.37;;;;;;;11.30;81.37;101401.25;6119364;23;20167;-63
2021/10/12 00:23:20;;;;;;;16.67;14.00;;;;;;;11.40;81.67;101395.56;6116832;23;20161;-63
2021/10/12 00:25:46;;;;;;;18.03;16.13;;;;;;;11.39;81.48;101391.22;6119301;23;20188;-64
2021/10/12 00:28:11;;;;;;;18.73;16.73;;;;;;;11.28;81.38;101375.91;6118647;23;20151;-64
2021/10/12 00:30:37;;;;;;;20.47;18.37;;;;;;;11.52;81.44;101394.19;6118546;23;20223;-63
2021/10/12 00:33:04;;;;;;;20.87;18.87;;;;;;;11.47;80.81;101391.88;6118217;23;20150;-62
2021/10/12 00:35:29;;;;;;;21.83;19.60;;;;;;;11.46;81.06;101391.09;6119197;23;20159;-62
2021/10/12 00:37:55;;;;;;;21.63;19.27;;;;;;;11.42;80.88;101376.47;6118398;23;20544;-62
2021/10/12 00:40:21;;;;;;;19.67;17.77;;;;;;;11.22;80.88;101358.94;6120965;23;20150;-63
2021/10/12 00:42:46;;;;;;;22.13;18.03;;;;;;;11.38;81.04;101384.06;6121001;23;20618;-63
2021/10/12 00:45:13;;;;;;;20.53;18.33;;;;;;;11.41;81.31;101385.22;6119985;23;20161;-63
2021/10/12 00:47:39;;;;;;;19.57;17.47;;;;;;;11.27;81.49;101386.22;6121141;23;20154;-62
2021/10/12 00:50:06;;;;;;;19.70;17.70;;;;;;;11.24;81.67;101384.31;6120340;23;20162;-63
2021/10/12 00:52:34;;;;;;;20.97;18.83;;;;;;;11.32;81.83;101374.66;6120987;23;20157;-62
2021/10/12 00:55:00;;;;;;;21.47;19.43;;;;;;;11.44;81.79;101363.00;6120641;23;20507;-62
2021/10/12 00:57:25;;;;;;;22.57;20.37;;;;;;;11.50;81.34;101368.81;6120495;23;20582;-63
2021/10/12 00:59:50;;;;;;;22.37;20.07;;;;;;;11.59;81.42;101369.13;6120864;23;20563;-64
2021/10/12 01:02:16;;;;;;;21.67;19.40;;;;;;;11.62;81.01;101363.50;6120485;23;20162;-63
2021/10/12 01:04:42;;;;;;;18.80;16.90;;;;;;;11.72;80.66;101365.31;6120150;23;20162;-60
2021/10/12 01:07:07;;;;;;;15.67;14.00;;;;;;;11.80;80.29;101358.44;6120442;23;20374;-60
2021/10/12 01:09:33;;;;;;;14.87;13.37;;;;;;;11.73;80.07;101352.22;6120801;23;20190;-62
2021/10/12 01:11:59;;;;;;;12.13;10.93;;;;;;;11.76;79.95;101343.03;6120482;23;20157;-64
2021/10/12 01:14:26;;;;;;;14.37;11.50;;;;;;;11.79;79.81;101347.75;6119815;23;20233;-64
2021/10/12 01:16:52;;;;;;;12.50;11.17;;;;;;;11.72;80.13;101339.53;6120894;23;20612;-64
2021/10/12 01:19:17;;;;;;;12.23;10.77;;;;;;;11.71;80.07;101333.22;6120379;23;20146;-64
2021/10/12 01:21:46;;;;;;;12.80;10.60;;;;;;;11.58;80.73;101334.22;6120892;23;20150;-64
2021/10/12 01:24:12;;;;;;;11.87;10.67;;;;;;;11.64;80.64;101329.78;6116384;23;20162;-63
2021/10/12 01:26:41;;;;;;;10.50;9.40;;;;;;;11.69;80.79;101334.84;6120973;23;20592;-62
2021/10/12 01:29:09;;;;;;;10.80;8.60;;;;;;;11.69;80.99;101334.84;6119814;23;20210;-62
2021/10/12 01:31:35;;;;;;;8.30;7.43;;;;;;;11.41;80.52;101280.56;6120396;23;20206;-63
2021/10/12 01:34:01;;;;;;;8.47;7.57;;;;;;;11.70;80.28;101323.31;6119440;23;20721;-63
2021/10/12 01:36:28;;;;;;;8.80;7.90;;;;;;;11.06;80.71;101225.66;6121199;23;20605;-63
2021/10/12 01:38:53;;;;;;;8.50;7.60;;;;;;;11.65;80.36;101318.25;6120525;23;20150;-64
2021/10/12 01:41:19;;;;;;;9.80;7.67;;;;;;;11.61;80.59;101311.16;6120074;23;20154;-61
2021/10/12 01:43:44;;;;;;;7.50;6.70;;;;;;;11.63;80.52;101306.75;6118122;23;20166;-61
2021/10/12 01:46:10;;;;;;;8.20;7.33;;;;;;;11.25;80.65;101252.69;6120841;23;20151;-63
2021/10/12 01:48:36;;;;;;;8.23;7.33;;;;;;;11.30;80.63;101256.97;6120665;23;20243;-60
2021/10/12 01:51:03;;;;;;;8.60;7.10;;;;;;;11.62;80.62;101305.19;6119156;23;20161;-60
2021/10/12 01:53:30;;;;;;;7.20;6.50;;;;;;;11.68;80.25;101308.28;6119097;23;20185;-61
2021/10/12 01:55:56;;;;;;;8.50;6.50;;;;;;;11.39;80.34;101263.56;6120470;23;20161;-61
2021/10/12 01:58:22;;;;;;;7.10;6.40;;;;;;;11.32;80.14;101260.13;6120575;23;20161;-64
2021/10/12 02:00:47;;;;;;;8.03;6.73;;;;;;;11.56;80.54;101297.75;6118708;23;20558;-63
2021/10/12 02:03:13;;;;;;;6.47;5.77;;;;;;;11.41;80.58;101286.09;6119122;23;20162;-62
2021/10/12 02:05:39;;;;;;;7.13;6.40;;;;;;;11.45;80.72;101295.16;6119987;23;20182;-63
2021/10/12 02:08:05;;;;;;;6.73;5.87;;;;;;;11.52;80.59;101299.81;6119931;23;20183;-63
2021/10/12 02:10:30;;;;;;;7.70;5.40;;;;;;;11.60;80.59;101309.59;6120288;23;20193;-62
2021/10/12 02:12:56;;;;;;;6.53;5.50;;;;;;;11.64;80.36;101310.34;6119725;23;20166;-62
2021/10/12 02:15:21;;;;;;;6.70;5.73;;;;;;;11.38;80.56;101280.63;6119407;23;20161;-65
2021/10/12 02:17:47;;;;;;;6.07;5.47;;;;;;;11.45;80.65;101283.25;6118664;23;20271;-62
2021/10/12 02:20:13;;;;;;;6.57;5.87;;;;;;;11.53;80.99;101298.59;6119743;23;20154;-60
2021/10/12 02:22:40;;;;;;;6.57;5.97;;;;;;;11.58;80.69;101298.13;6117497;23;20165;-62
2021/10/12 02:25:08;;;;;;;9.57;6.30;;;;;;;11.66;80.51;101302.34;6118561;23;20181;-63
2021/10/12 02:27:34;;;;;;;7.93;7.13;;;;;;;11.54;80.56;101300.94;6120502;23;20155;-62
2021/10/12 02:29:59;;;;;;;7.70;6.60;;;;;;;11.52;80.80;101303.38;6119208;23;20738;-63
2021/10/12 02:32:25;;;;;;;7.03;6.33;;;;;;;11.54;81.23;101302.94;6119740;23;20147;-63
2021/10/12 02:34:50;;;;;;;8.00;7.20;;;;;;;11.27;80.66;101258.59;6118592;23;20162;-62
2021/10/12 02:37:16;;;;;;;7.80;7.00;;;;;;;11.52;81.07;101295.03;6120087;23;20182;-62
2021/10/12 02:39:42;;;;;;;8.83;7.43;;;;;;;11.31;81.33;101261.28;6119934;23;20226;-63
2021/10/12 02:42:07;;;;;;;8.20;7.20;;;;;;;11.43;81.03;101263.50;6119325;23;20510;-62
2021/10/12 02:44:33;;;;;;;8.57;6.80;;;;;;;11.44;80.32;101265.84;6118907;23;20508;-63
2021/10/12 02:46:59;;;;;;;7.87;7.07;;;;;;;11.73;80.50;101294.69;6119679;23;20609;-63
2021/10/12 02:49:24;;;;;;;8.57;6.90;;;;;;;11.77;80.52;101300.16;6119591;23;20193;-63
2021/10/12 02:51:50;;;;;;;8.70;6.70;;;;;;;11.71;80.11;101286.00;6119958;23;20267;-63
2021/10/12 02:54:15;;;;;;;8.83;7.50;;;;;;;11.71;80.38;101288.78;6118276;23;20610;-63
2021/10/12 02:56:41;;;;;;;6.93;6.23;;;;;;;11.73;79.97;101291.91;6120156;23;20542;-62
2021/10/12 02:59:07;;;;;;;7.70;6.87;;;;;;;11.56;80.09;101264.44;6119381;23;20216;-63
2021/10/12 03:01:32;;;;;;;7.10;6.40;;;;;;;11.76;80.19;101282.75;6119541;23;20157;-63
2021/10/12 03:03:58;;;;;;;7.20;6.30;;;;;;;11.49;80.23;101253.47;6118323;23;20162;-63
2021/10/12 03:06:23;;;;;;;7.03;6.37;;;;;;;11.85;79.94;101277.44;6119552;23;20248;-62
2021/10/12 03:08:49;;;;;;;7.00;6.30;;;;;;;11.73;79.70;101286.38;6119740;23;20272;-62
2021/10/12 03:11:14;;;;;;;8.43;6.83;;;;;;;11.74;80.29;101282.38;6119132;23;20181;-62
2021/10/12 03:13:40;;;;;;;6.90;6.17;;;;;;;11.79;80.28;101279.09;6118458;23;20553;-62
2021/10/12 03:16:07;;;;;;;6.63;5.87;;;;;;;11.57;79.92;101232.69;6118682;23;20232;-63
2021/10/12 03:18:34;;;;;;;8.70;6.30;;;;;;;11.76;79.65;101276.41;6119361;23;20169;-63
2021/10/12 03:21:00;;;;;;;7.47;5.90;;;;;;;11.45;79.94;101227.75;6119729;23;20571;-62
2021/10/12 03:23:26;;;;;;;8.87;6.80;;;;;;;11.62;80.41;101258.00;6117352;23;20155;-63
2021/10/12 03:25:51;;;;;;;13.60;6.70;;;;;;;11.77;80.12;101278.75;6116927;23;20260;-62
2021/10/12 03:28:17;;;;;;;7.70;6.80;;;;;;;11.75;80.08;101281.19;6119065;23;20509;-62
2021/10/12 03:30:42;;;;;;;8.67;6.50;;;;;;;11.76;80.15;101279.97;6119442;23;20680;-63
2021/10/12 03:33:08;;;;;;;7.03;5.97;;;;;;;11.21;80.22;101187.34;6118121;23;20165;-62
2021/10/12 03:35:39;;;;;;;7.03;6.33;;;;;;;11.73;80.31;101277.25;6119454;23;20181;-62
2021/10/12 03:38:05;;;;;;;8.03;6.47;;;;;;;11.41;80.28;101230.59;6117075;23;20154;-63
2021/10/12 03:40:31;;;;;;;8.07;7.27;;;;;;;11.72;80.90;101265.38;6119476;23;20269;-63
2021/10/12 03:42:57;;;;;;;7.70;6.80;;;;;;;11.59;80.52;101250.50;6119267;23;20155;-62
2021/10/12 03:45:22;;;;;;;8.30;7.47;;;;;;;11.68;80.61;101261.09;6118779;23;20225;-62
2021/10/12 03:47:48;;;;;;;8.30;7.50;;;;;;;11.68;80.52;101264.63;6119552;23;20577;-62
2021/10/12 03:50:14;;;;;;;9.27;7.27;;;;;;;11.73;80.96;101264.16;6117350;23;20214;-61
2021/10/12 03:52:40;;;;;;;8.80;7.20;;;;;;;11.49;80.23;101209.06;6119623;23;20161;-62
2021/10/12 03:55:06;;;;;;;8.53;7.63;;;;;;;11.78;79.95;101266.44;6117884;23;20612;-62
2021/10/12 03:57:31;;;;;;;9.73;8.50;;;;;;;11.77;80.12;101248.22;6119366;23;20154;-62
2021/10/12 03:59:57;;;;;;;10.10;7.87;;;;;;;11.82;80.12;101249.69;6119653;23;20237;-61
2021/10/12 04:02:23;;;;;;;12.47;8.47;;;;;;;11.79;80.05;101256.88;6119166;23;20159;-62
2021/10/12 04:04:48;;;;;;;14.27;9.37;;;;;;;11.44;80.08;101202.00;6118376;23;20161;-62
2021/10/12 04:07:14;;;;;;;15.73;10.77;;;;;;;11.78;80.29;101258.09;6118970;23;20175;-62
2021/10/12 04:09:39;;;;;;;17.17;11.27;;;;;;;11.73;80.34;101252.28;6119326;23;20236;-62
2021/10/12 04:12:05;;;;;;;16.17;11.33;;;;;;;11.82;80.00;101263.59;6119185;23;20621;-61
2021/10/12 04:14:30;;;;;;;14.53;11.27;;;;;;;11.72;80.44;101261.78;6117520;23;20158;-62
2021/10/12 04:16:56;;;;;;;14.60;11.33;;;;;;;11.79;80.38;101250.56;6119336;23;20161;-61
2021/10/12 04:19:21;;;;;;;14.73;11.90;;;;;;;11.73;80.34;101239.16;6119319;23;20151;-62
2021/10/12 04:21:47;;;;;;;14.17;12.37;;;;;;;11.91;79.98;101256.28;6118287;23;20477;-61
2021/10/12 04:24:12;;;;;;;15.53;12.17;;;;;;;11.92;80.08;101249.50;6116178;23;20154;-62
2021/10/12 04:26:39;;;;;;;13.90;12.13;;;;;;;12.00;79.53;101250.91;6119254;23;20494;-62
2021/10/12 04:29:05;;;;;;;14.23;12.47;;;;;;;11.81;79.12;101226.72;6119142;23;20191;-62
2021/10/12 04:31:32;;;;;;;14.27;12.70;;;;;;;11.93;79.97;101251.06;6119083;23;20220;-62
2021/10/12 04:33:58;;;;;;;14.97;13.47;;;;;;;11.95;79.74;101251.41;6117379;23;20168;-61
2021/10/12 04:36:23;;;;;;;19.00;14.33;;;;;;;11.95;79.33;101237.53;6118317;23;20162;-61
2021/10/12 04:38:49;;;;;;;15.13;13.60;;;;;;;12.02;79.14;101245.75;6117860;23;20190;-62
2021/10/12 04:41:14;;;;;;;16.03;13.60;;;;;;;11.98;79.29;101256.13;6109186;23;20162;-62
2021/10/12 04:43:40;;;;;;;16.50;14.80;;;;;;;11.70;79.43;101209.50;6118951;23;20582;-62
2021/10/12 04:46:06;;;;;;;13.80;12.40;;;;;;;11.95;79.12;101243.09;6118779;23;20522;-62
2021/10/12 04:48:32;;;;;;;14.33;12.93;;;;;;;11.96;79.54;101243.88;6107284;23;20151;-62
2021/10/12 04:50:57;;;;;;;13.60;12.20;;;;;;;11.91;79.39;101245.16;6109051;23;20158;-62
2021/10/12 04:53:23;;;;;;;14.33;12.13;;;;;;;11.81;79.17;101234.25;6104754;23;20231;-62
2021/10/12 04:55:49;;;;;;;13.43;11.60;;;;;;;11.90;79.95;101246.38;6105679;23;20585;-63
2021/10/12 04:58:14;;;;;;;15.40;12.67;;;;;;;11.90;79.89;101251.16;6107053;23;20182;-62
2021/10/12 05:00:40;;;;;;;13.07;11.60;;;;;;;12.01;79.95;101251.72;6109434;23;20159;-63
2021/10/12 05:03:05;;;;;;;13.63;11.23;;;;;;;12.00;79.33;101250.16;6109612;23;20182;-62
2021/10/12 05:05:31;;;;;;;13.40;11.20;;;;;;;12.04;79.32;101251.66;6111138;23;20236;-63
2021/10/12 05:07:57;;;;;;;13.50;11.67;;;;;;;12.06;79.24;101243.69;6115423;23;20225;-63
2021/10/12 05:10:23;;;;;;;12.83;11.53;;;;;;;12.08;78.97;101246.81;6108588;23;20158;-63
2021/10/12 05:12:48;;;;;;;12.50;11.20;;;;;;;12.07;79.25;101241.66;6116970;23;20155;-62
2021/10/12 05:15:20;;;;;;;13.27;11.87;;;;;;;12.08;79.19;101232.13;6111059;23;20170;-61
2021/10/12 05:17:48;;;;;;;13.67;12.27;;;;;;;11.88;78.85;101198.81;6114236;23;20386;-62
2021/10/12 05:20:13;;;;;;;14.43;12.93;;;;;;;12.17;78.72;101240.69;6113461;23;20164;-61
2021/10/12 05:22:39;;;;;;;12.43;11.17;;;;;;;12.08;78.69;101243.22;6114015;23;20159;-61
2021/10/12 05:25:05;;;;;;;10.73;9.20;;;;;;;12.01;78.83;101232.28;6108748;23;20216;-62
2021/10/12 05:27:31;;;;;;;9.60;8.07;;;;;;;11.96;79.07;101236.34;6095226;23;20150;-62
2021/10/12 05:29:57;;;;;;;10.63;8.67;;;;;;;11.99;79.56;101245.81;6118348;23;20560;-62
2021/10/12 05:32:23;;;;;;;11.07;8.63;;;;;;;11.96;79.43;101241.09;6119602;23;20143;-61
2021/10/12 05:34:48;;;;;;;10.27;8.40;;;;;;;11.82;79.53;101222.72;6119131;23;20154;-62
2021/10/12 05:37:14;;;;;;;10.27;7.70;;;;;;;12.05;79.53;101247.66;6119633;23;20180;-62
2021/10/12 05:39:39;;;;;;;7.83;7.03;;;;;;;11.89;79.28;101213.47;6117829;23;20197;-61
2021/10/12 05:42:05;;;;;;;8.37;7.57;;;;;;;12.03;79.48;101252.06;6119485;23;20601;-62
2021/10/12 05:44:30;;;;;;;8.57;7.30;;;;;;;12.07;79.79;101244.44;6119056;23;20154;-61
2021/10/12 05:46:56;;;;;;;7.67;6.90;;;;;;;12.12;79.18;101258.63;6118962;23;20161;-61
2021/10/12 05:49:21;;;;;;;7.40;6.70;;;;;;;12.11;79.00;101251.53;6118130;23;20158;-61
2021/10/12 05:51:47;;;;;;;8.87;7.97;;;;;;;12.17;79.44;101260.91;6117462;23;20163;-61
2021/10/12 05:54:16;;;;;;;7.53;6.80;;;;;;;11.82;78.91;101203.28;6105718;23;20812;-61
2021/10/12 05:56:56;;;;;;;7.90;7.10;;;;;;;12.24;79.07;101262.78;6117699;23;20150;-61
2021/10/12 05:59:21;;;;;;;8.20;6.87;;;;;;;12.31;78.86;101268.97;6117322;23;20197;-61
2021/10/12 06:01:47;;;;;;;10.20;7.23;;;;;;;12.38;79.12;101268.03;6118122;23;20216;-61
2021/10/12 06:04:12;;;;;;;7.87;7.00;;;;;;;12.25;78.92;101239.31;6117849;23;20744;-62
2021/10/12 06:06:38;;;;;;;8.70;7.43;;;;;;;12.37;78.79;101258.13;6118736;23;20184;-61
2021/10/12 06:09:05;;;;;;;8.10;7.30;;;;;;;12.34;78.56;101254.19;6118696;23;20541;-62
2021/10/12 06:11:30;;;;;;;8.87;7.90;;;;;;;12.51;77.84;101280.84;6119281;23;20154;-62
2021/10/12 06:13:56;;;;;;;9.40;8.33;;;;;;;12.16;78.09;101236.34;6116593;23;20173;-62
2021/10/12 06:16:23;;;;;;;10.43;9.20;;;;;;;12.38;78.38;101266.03;6119006;23;20680;-61
2021/10/12 06:18:48;;;;;;;10.90;9.73;;;;;;;12.53;78.08;101280.41;6118481;23;20202;-62
2021/10/12 06:21:14;;;;;;;11.10;10.00;;;;;;;12.56;77.95;101280.31;6118435;23;20154;-62
2021/10/12 06:23:40;;;;;;;11.50;10.20;;;;;;;12.62;77.94;101280.63;6116753;23;20156;-61
2021/10/12 06:26:06;;;;;;;11.47;10.27;;;;;;;12.68;77.69;101279.69;6117806;23;20228;-62
2021/10/12 06:28:32;;;;;;;11.13;10.00;;;;;;;12.73;77.61;101275.59;6119019;23;20162;-62
2021/10/12 06:30:57;;;;;;;11.67;10.23;;;;;;;12.79;77.62;101271.88;6118441;23;20202;-61
2021/10/12 06:33:23;;;;;;;9.40;8.47;;;;;;;12.74;76.91;101246.56;6117328;23;20178;-61
2021/10/12 06:35:49;;;;;;;9.30;8.40;;;;;;;12.78;76.88;101258.41;6114147;23;20654;-61
2021/10/12 06:38:14;;;;;;;9.43;8.47;;;;;;;12.49;76.85;101210.19;6113256;23;20187;-61
2021/10/12 06:40:40;;;;;;;11.73;9.70;;;;;;;12.77;77.14;101271.53;6114276;23;20227;-61
2021/10/12 06:43:06;;;;;;;13.17;11.30;;;;;;;12.74;77.29;101266.84;6114260;23;20158;-61
2021/10/12 06:45:32;;;;;;;12.60;11.00;;;;;;;12.68;77.25;101265.78;6117507;23;20206;-61
2021/10/12 06:47:58;;;;;;;9.97;8.97;;;;;;;12.54;77.74;101263.31;6117536;23;20154;-61
2021/10/12 06:50:24;;;;;;;7.87;7.07;;;;;;;12.53;78.08;101253.41;6115591;23;20154;-60
2021/10/12 06:52:50;;;;;;;9.47;8.20;;;;;;;12.47;78.60;101262.66;6116861;23;20158;-61
2021/10/12 06:55:17;;;;;;;10.00;8.47;;;;;;;12.54;78.41;101268.88;6116183;23;20182;-61
2021/10/12 06:57:43;;;;;;;10.70;9.30;;;;;;;12.50;78.88;101267.38;6114728;23;20271;-61
2021/10/12 07:00:13;;;;;;;11.40;10.20;;;;;;;12.51;78.94;101250.25;6116499;23;20625;-61
2021/10/12 07:02:39;;;;;;;11.53;10.33;;;;;;;12.62;78.13;101278.63;6117010;23;20547;-61
2021/10/12 07:05:05;;;;;;;11.37;10.17;;;;;;;12.68;78.01;101276.91;6117447;23;20154;-61
2021/10/12 07:07:31;;;;;;;11.90;10.70;;;;;;;12.64;78.13;101290.09;6117018;23;20155;-61
2021/10/12 07:09:58;;;;;;;12.07;10.77;;;;;;;12.61;78.28;101287.41;6113103;23;20170;-61
2021/10/12 07:12:23;;;;;;;11.33;10.13;;;;;;;12.55;78.22;101289.13;6115682;23;20182;-61
2021/10/12 07:14:49;;;;;;;11.73;10.30;;;;;;;12.55;78.78;101287.09;6115857;23;20223;-61
2021/10/12 07:17:14;;;;;;;9.80;8.80;;;;;;;12.74;78.80;101289.09;6117845;23;20155;-61
2021/10/12 07:19:40;;;;;;;9.00;8.10;;;;;;;12.57;77.67;101262.47;6117559;23;20185;-61
2021/10/12 07:22:05;;;;;;;9.63;8.50;;;;;;;12.76;77.83;101291.44;6117957;23;20183;-61
2021/10/12 07:24:31;;;;;;;9.73;8.43;;;;;;;12.78;77.94;101291.78;6116894;23;20161;-61
2021/10/12 07:26:56;;;;;;;9.33;8.43;;;;;;;12.53;78.10;101256.19;6117564;23;20688;-62
2021/10/12 07:29:22;;;;;;;11.77;8.23;;;;;;;12.79;77.53;101291.34;6117016;23;20653;-62
2021/10/12 07:31:48;;;;;;;9.47;8.57;;;;;;;12.61;77.53;101260.34;6117653;23;20155;-61
2021/10/12 07:34:15;;;;;;;8.40;7.50;;;;;;;12.83;77.11;101282.91;6116802;23;20249;-61
2021/10/12 07:36:40;;;;;;;8.37;7.47;;;;;;;12.74;77.47;101285.50;6116866;23;20150;-61
2021/10/12 07:39:07;;;;;;;8.80;7.90;;;;;;;12.79;78.28;101285.78;6116599;23;20193;-61
2021/10/12 07:41:32;;;;;;;11.73;9.30;;;;;;;12.88;77.74;101283.22;6113942;23;20245;-61
2021/10/12 07:43:58;;;;;;;13.07;10.47;;;;;;;12.94;77.47;101275.91;6116918;23;20201;-61
2021/10/12 07:46:25;;;;;;;12.33;10.13;;;;;;;13.02;76.76;101294.03;6115166;23;20630;-62
2021/10/12 07:48:54;;;;;;;15.33;9.73;;;;;;;12.98;76.82;101279.44;6116859;23;20154;-62
2021/10/12 07:51:20;;;;;;;12.20;9.30;;;;;;;12.91;76.74;101273.97;6116998;23;20177;-61
2021/10/12 07:53:46;;;;;;;12.30;9.03;;;;;;;13.10;76.47;101292.66;6116785;23;20173;-61
2021/10/12 07:56:18;;;;;;;12.97;9.83;;;;;;;13.15;76.14;101285.78;6116855;23;20718;-61
2021/10/12 07:58:43;;;;;;;10.67;8.80;;;;;;;13.18;76.52;101296.84;6116652;23;20209;-61
2021/10/12 08:01:09;;;;;;;11.13;8.70;;;;;;;13.21;76.10;101278.50;6116867;23;20482;-62
2021/10/12 08:03:35;;;;;;;10.43;8.30;;;;;;;13.17;75.75;101250.72;6116303;23;20586;-62
2021/10/12 08:06:00;;;;;;;10.43;7.83;;;;;;;13.56;75.54;101283.16;6115485;23;20608;-61
2021/10/12 08:08:26;;;;;;;9.63;7.70;;;;;;;13.66;75.16;101284.88;6118143;23;20152;-61
2021/10/12 08:10:52;;;;;;;9.90;7.60;;;;;;;13.67;75.33;101280.88;6115982;23;20512;-61
2021/10/12 08:13:20;;;;;;;7.80;6.83;;;;;;;13.58;75.37;101289.84;6116812;23;20207;-61
2021/10/12 08:15:52;;;;;;;6.80;5.83;;;;;;;13.54;75.02;101274.47;6115073;23;20176;-61
2021/10/12 08:18:18;;;;;;;7.03;6.33;;;;;;;13.14;75.00;101223.78;6115286;23;20257;-61
2021/10/12 08:20:46;;;;;;;8.73;7.20;;;;;;;13.65;75.29;101281.34;6116563;23;20606;-62
2021/10/12 08:23:12;;;;;;;9.20;7.97;;;;;;;13.55;74.56;101284.38;6116470;23;20307;-62
2021/10/12 08:25:37;;;;;;;9.30;8.40;;;;;;;13.48;75.29;101282.56;6116516;23;20170;-61
2021/10/12 08:28:03;;;;;;;10.27;9.23;;;;;;;13.51;75.67;101273.34;6117564;23;20609;-61
2021/10/12 08:30:28;;;;;;;10.30;9.30;;;;;;;13.55;74.75;101260.13;6116826;23;20205;-61
2021/10/12 08:32:54;;;;;;;11.07;9.97;;;;;;;13.52;74.41;101265.78;6114592;23;20177;-61
2021/10/12 08:35:20;;;;;;;10.90;9.80;;;;;;;13.52;76.03;101266.53;6116902;23;20153;-61
2021/10/12 08:37:45;;;;;;;8.80;7.93;;;;;;;13.30;75.25;101259.97;6116562;23;20233;-61
2021/10/12 08:40:16;;;;;;;9.70;8.70;;;;;;;13.34;76.50;101254.31;6114289;23;20175;-61
2021/10/12 08:42:52;;;;;;;8.70;7.83;;;;;;;13.37;76.60;101248.63;6113862;23;20149;-61
2021/10/12 08:45:20;;;;;;;8.20;7.40;;;;;;;13.24;76.60;101249.78;6113604;23;20161;-61
2021/10/12 08:47:47;;;;;;;9.03;8.07;;;;;;;13.36;76.55;101232.38;6113987;23;20158;-61
2021/10/12 08:50:16;;;;;;;9.67;8.40;;;;;;;13.41;76.79;101221.50;6116434;23;20162;-61
2021/10/12 08:52:44;;;;;;;7.00;6.30;;;;;;;13.72;75.63;101246.91;6111605;23;20185;-61
2021/10/12 08:55:10;;;;;;;7.30;6.60;;;;;;;13.87;74.46;101245.31;6115950;23;20153;-61
2021/10/12 08:57:38;;;;;;;7.27;6.50;;;;;;;13.69;74.21;101242.25;6115018;23;20161;-61
2021/10/12 09:00:10;;;;;;;7.97;7.17;;;;;;;13.70;74.62;101236.25;6116044;23;20162;-61
2021/10/12 09:03:29;;;;;;;7.07;6.37;;;;;;;13.72;74.63;101231.00;6118192;23;20149;-62
2021/10/12 09:05:59;;;;;;;7.83;7.07;;;;;;;13.58;74.02;101233.41;6118234;23;20139;-62
2021/10/12 09:08:27;;;;;;;9.03;7.50;;;;;;;13.52;75.95;101230.34;6119396;23;20178;-62
2021/10/12 09:10:54;;;;;;;7.70;6.87;;;;;;;13.62;75.43;101220.16;6117890;23;20594;-62
2021/10/12 09:13:19;;;;;;;7.93;7.10;;;;;;;13.68;74.47;101229.53;6115824;23;20158;-62
2021/10/12 09:16:09;;;;;;;7.90;6.80;;;;;;;13.59;74.92;101224.59;6118292;23;20623;-61
2021/10/12 09:18:47;;;;;;;11.60;7.50;;;;;;;13.55;74.58;101220.34;6114497;23;20212;-62
2021/10/12 09:21:14;;;;;;;8.57;7.63;;;;;;;13.42;74.38;101222.28;6117937;23;20214;-62
2021/10/12 09:23:44;;;;;;;9.27;8.10;;;;;;;13.49;75.28;101231.25;6118220;23;20160;-62
2021/10/12 09:26:27;;;;;;;8.77;7.87;;;;;;;13.64;74.93;101215.72;6116613;23;20645;-62
2021/10/12 09:29:33;;;;;;;10.00;8.93;;;;;;;13.85;74.41;101219.91;6118742;23;20589;-62
2021/10/12 09:31:59;;;;;;;10.07;8.60;;;;;;;14.04;74.08;101218.97;6118618;23;20502;-62
2021/10/12 09:34:28;;;;;;;9.23;8.23;;;;;;;14.10;73.23;101212.41;6116191;23;20183;-62
2021/10/12 09:36:54;;;;;;;9.17;8.10;;;;;;;14.06;73.09;101222.91;6116988;23;20597;-62
2021/10/12 09:39:37;;;;;;;11.23;8.93;;;;;;;14.00;72.71;101223.88;6118237;23;20182;-62
2021/10/12 09:42:14;;;;;;;11.07;9.83;;;;;;;13.90;73.64;101216.59;6118386;23;20326;-63
2021/10/12 09:44:59;;;;;;;11.07;9.90;;;;;;;13.37;72.97;101131.72;6117980;23;20165;-63
2021/10/12 09:47:27;;;;;;;11.00;9.90;;;;;;;13.93;73.83;101210.91;6117751;23;20143;-63
2021/10/12 09:50:06;;;;;;;11.30;10.20;;;;;;;13.70;73.41;101185.31;6116110;23;20154;-63
2021/10/12 09:52:36;;;;;;;12.43;10.90;;;;;;;13.77;73.51;101199.03;6116140;23;20470;-62
2021/10/12 09:55:02;;;;;;;12.30;10.87;;;;;;;13.99;73.22;101203.56;6115627;23;20188;-62
2021/10/12 09:57:30;;;;;;;12.23;10.93;;;;;;;14.14;73.15;101201.94;6114186;23;20633;-62
2021/10/12 09:59:56;;;;;;;13.03;11.67;;;;;;;14.37;73.72;101201.69;6115477;23;20300;-62
2021/10/12 10:02:24;;;;;;;11.50;10.40;;;;;;;14.61;72.46;101200.13;6118116;23;20229;-63
2021/10/12 10:04:51;;;;;;;11.30;10.00;;;;;;;14.81;69.71;101199.94;6117075;23;20177;-63
2021/10/12 10:07:31;;;;;;;11.50;9.73;;;;;;;14.84;69.93;101190.66;6113306;23;20163;-63
2021/10/12 10:10:05;;;;;;;10.77;9.63;;;;;;;14.80;70.28;101196.34;6117587;23;20174;-63
2021/10/12 10:12:34;;;;;;;9.80;8.80;;;;;;;14.37;70.42;101097.75;6117791;23;20165;-63
2021/10/12 10:15:00;;;;;;;7.10;5.80;;;;;;;14.88;68.91;101183.75;6115394;23;20620;-63
2021/10/12 10:17:26;;;;;;;8.90;8.00;;;;;;;14.95;69.28;101182.69;6118482;23;20178;-63
2021/10/12 10:19:53;;;;;;;8.73;7.83;;;;;;;14.98;69.69;101181.81;6117795;23;20265;-63
2021/10/12 10:22:34;;;;;;;9.03;8.13;;;;;;;14.72;69.03;101104.97;6118016;23;20492;-63
2021/10/12 10:25:01;;;;;;;8.90;8.00;;;;;;;15.23;69.01;101167.81;6117469;23;20158;-64
2021/10/12 10:27:34;;;;;;;8.90;8.00;;;;;;;15.29;67.74;101152.03;6117934;23;20226;-64
2021/10/12 10:30:20;;;;;;;8.53;7.70;;;;;;;15.58;68.09;101158.22;6116864;23;20269;-63
2021/10/12 10:32:54;;;;;;;8.37;7.47;;;;;;;15.74;67.13;101147.66;6115947;23;20158;-63
2021/10/12 10:35:33;;;;;;;8.63;7.67;;;;;;;15.96;67.79;101148.41;6116375;23;20582;-63
2021/10/12 10:38:21;;;;;;;7.90;7.10;;;;;;;16.15;67.13;101141.69;6116710;23;20178;-63
2021/10/12 10:40:49;;;;;;;7.43;6.63;;;;;;;16.23;65.38;101128.19;6112082;23;20162;-64
2021/10/12 10:43:15;;;;;;;8.20;6.67;;;;;;;16.25;65.44;101100.56;6116557;23;20154;-62
2021/10/12 10:45:48;;;;;;;6.57;5.87;;;;;;;16.61;64.96;101123.13;6116964;23;20233;-63
2021/10/12 10:48:16;;;;;;;6.47;5.20;;;;;;;16.80;63.53;101128.28;6118165;23;20181;-64
2021/10/12 10:50:43;;;;;;;6.17;5.40;;;;;;;16.99;61.96;101115.91;6118216;23;20230;-65
2021/10/12 10:53:10;;;;;;;6.03;5.13;;;;;;;17.04;61.59;101112.50;6108624;23;20164;-64
2021/10/12 10:55:44;;;;;;;6.43;4.93;;;;;;;17.08;61.82;101115.13;6113871;23;20165;-64
2021/10/12 10:58:17;;;;;;;6.13;5.20;;;;;;;16.85;62.63;101090.53;6114969;23;20690;-64
2021/10/12 11:00:49;;;;;;;6.13;5.17;;;;;;;17.06;63.20;101098.78;6118039;23;20161;-65
2021/10/12 11:03:34;;;;;;;6.00;5.40;;;;;;;17.17;62.82;101096.31;6116550;23;20613;-64
2021/10/12 11:06:05;;;;;;;7.53;5.37;;;;;;;16.98;63.43;101099.56;6115944;23;20248;-64
2021/10/12 11:08:33;;;;;;;6.10;4.37;;;;;;;17.09;63.15;101089.47;6116983;23;20201;-65
2021/10/12 11:11:07;;;;;;;5.67;4.80;;;;;;;16.95;62.64;101087.25;6115742;23;20169;-65
2021/10/12 11:13:38;;;;;;;5.13;4.30;;;;;;;17.00;62.75;101092.25;6116615;23;20154;-65
2021/10/12 11:16:09;;;;;;;6.77;4.90;;;;;;;16.73;63.88;101057.06;6116712;23;20486;-66
2021/10/12 11:18:36;;;;;;;7.97;5.70;;;;;;;16.58;64.40;101042.88;6117346;23;20185;-65
2021/10/12 11:21:05;;;;;;;6.80;5.50;;;;;;;16.90;63.58;101087.88;6117312;23;20155;-65